PAYA/YAK METAR and TAF weather

Enter ICAO airport designator
Station Type Date Time Source
PAYA METAR 2019/04/23 03:53 UTC NOAA

PAYA 230353Z AUTO 14005KT 10SM -RA FEW033 BKN043 BKN050 04/M01 A2970 RMK AO2 RAB33 SLP056 P0000 T00391006 TSNO


Station Type Date Time Source
PAYA Decoded METAR 2019/04/23 03:53 UTC NOAA

YAKUTAT AIRPORT, AK, United States (PAYA) 59-30N 139-40W 9M
Apr 22, 2019 - 11:53 PM EDT / 2019.04.23 0353 UTC
Wind: from the SE (140 degrees) at 6 MPH (5 KT):0
Visibility: 10 mile(s):0
Sky conditions: mostly cloudy
Weather: light rain
Precipitation last hour: A trace
Temperature: 39.0 F (3.9 C)
Dew Point: 30.9 F (-0.6 C)
Relative Humidity: 72%
Pressure (altimeter): 29.7 in. Hg (1005 hPa)
ob: PAYA 230353Z AUTO 14005KT 10SM -RA FEW033 BKN043 BKN050 04/M01 A2970 RMK AO2 RAB33 SLP056 P0000 T00391006 TSNO
cycle: 4

Station Type Date Time Source
PAYA TAF 2019/04/23 00:09 UTC NOAA

TAF
AMD PAYA 230006Z 2300/2324 24012KT 3SM SHRAPL BKN010 OVC025 WS020/24045KT
TEMPO 2300/2304 26015G25KT 6SM -SHRA SCT010 BKN025 OVC040
FM230400 21012KT P6SM -SHRA SCT010 SCT025 OVC035
TEMPO 2304/2308 14010KT 4SM -SHRAPL FEW006 SCT010 OVC025
FM230800 14010KT 6SM SHRA SCT020 OVC035 PROB30 2318/2324 3SM SHRA OVC010
AMD LTD TO CLD VIS AND WIND

Example: see airport list